CheckWX is a tool to help pilots better visualize weather data.  It is not intended as a substitute for an official pre-flight weather briefing.

05:19:33 UTC

LYNI TAF
Nis Airport
Nis, Serbia
TAF LYNI 192300Z 2000/2024 06005KT 7000 NSC TX13/2013Z TNM02/2005Z TEMPO 2004/2007 1500 BR TEMPO 2011/2016 32015KT

Feb-20@
00:00 UTC

Feb-20 @ 00:00 UTC

Feb-21@
00:00 UTC

Feb-21 @ 00:00 UTC

TAF LYNI 192300Z 2000/2024 06005KT 7000 NSC TX13/2013Z TNM02/2005Z
Wind
  • 060° at 5 KTS
Visibility
7,001 meters
Cloud Levels
  • No significant clouds

Feb-20@
04:00 UTC

Feb-20 @ 04:00 UTC

Feb-20@
07:00 UTC

Feb-20 @ 07:00 UTC

TEMPO 2004/2007 1500 BR

Temporary

TemporaryChanges expected for less than half the time period

Visibility
1,497 meters
Conditions
Mist

Feb-20@
11:00 UTC

Feb-20 @ 11:00 UTC

Feb-20@
16:00 UTC

Feb-20 @ 16:00 UTC

TEMPO 2011/2016 32015KT

Temporary

TemporaryChanges expected for less than half the time period

Wind
  • 320° at 15 KTS